Startpagina
METAR-TAF:

METAR-TAF

Vliegvelden :

Vliegbasis Koksijde

Koksijde, België

breedte: 51-05N, lengte: 002-39E, hoogte: 4 m

Actueel weer

Dit bericht is 17 minuten geleden gemaakt, om 15:41 UTC
Wind 4 kt uit het zuidzuidwesten
Temperatuur 5°C
Vochtigheid 100%
Druk 1047 hPa
Zicht: 2700 m

METAR: EBFN 201541Z AUTO 20004KT 2700 FEW099/// OVC120/// 05/05 Q1047 YLO

Tijdstip: 16:58 (15:58 UTC)

Verwachting

Dit bericht is 4 uur en het 17 minuten geleden gemaakt, om 11:41 UTC
Verwachting geldig van 20 om 13 UTC tot 20 om 22 UTC
Wind 3 kt uit variabele richting
Zicht 10 km of meer
Verspreide wolken op 7000 ft
Gebroken wolken op 9000 ft
Tijdelijke
van 20 om 15 UTC tot 20 om 22 UTC
Zicht: 4500 m
Weinig wolken op 1100 ft
nevel

TAF: EBFN 201141Z 2013/2022 VRB03KT 9999 SCT070 BKN090 TEMPO 2015/2022 4500 BR FEW011

Waarnemingen en weersverwachtingen van meer dan 4000 vliegvelden (METAR en TAF).

De beschikbare stations zijn de gele en rode punten op de kaart.

Ga met uw muis naar het station om de naam te zien.

Klik dan om waarnemingen en weersverwachtingen te zien.

kaart wijzigen: klik op de groene knoppen met een zwart kruis om in te zoomen, op de groene knop met een streepje om uit te zoomen of op de groene pijlen voor aangrenzende kaarten.


METAR-TAF: